Time;durP1;ratioP1;P1;durP2;ratioP2;P2;SDS_P1;SDS_P2;PMS_P1;PMS_P2;Temp;Humidity;BMP_temperature;BMP_pressure;BME280_temperature;BME280_humidity;BME280_pressure;Samples;Min_cycle;Max_cycle;Signal;HPM_P1;HPM_P2
2022/01/08 00:00:24;;;;;;;12.40;6.15;;;;;;;1.98;76.27;94860.50;5093662;28;20035;-69
2022/01/08 00:02:51;;;;;;;9.00;6.38;;;;;;;2.02;76.01;94864.56;5112888;27;20031;-69
2022/01/08 00:05:17;;;;;;;8.02;5.60;;;;;;;2.00;75.95;94866.38;5110159;27;20032;-70
2022/01/08 00:07:42;;;;;;;9.02;6.65;;;;;;;1.85;75.88;94847.44;5097804;28;20035;-69
2022/01/08 00:10:08;;;;;;;10.55;5.72;;;;;;;2.09;75.69;94845.44;5123600;27;20035;-69
2022/01/08 00:12:33;;;;;;;16.05;8.98;;;;;;;2.26;75.42;94865.13;5111378;27;20483;-70
2022/01/08 00:14:59;;;;;;;12.23;7.55;;;;;;;2.19;75.29;94863.75;5111281;27;20039;-69
2022/01/08 00:17:24;;;;;;;10.70;6.35;;;;;;;2.20;75.13;94852.56;5110961;27;20023;-69
2022/01/08 00:19:50;;;;;;;11.15;7.38;;;;;;;2.19;75.00;94856.88;5128262;27;20031;-69
2022/01/08 00:22:15;;;;;;;7.97;5.65;;;;;;;2.28;74.98;94863.28;5105562;28;20054;-69
2022/01/08 00:24:41;;;;;;;7.93;5.90;;;;;;;2.30;74.58;94864.03;5125917;27;20433;-69
2022/01/08 00:27:06;;;;;;;8.88;5.90;;;;;;;2.04;75.52;94857.66;5118872;27;20497;-69
2022/01/08 00:29:32;;;;;;;9.88;6.22;;;;;;;2.12;75.79;94849.59;5126811;27;20031;-69
2022/01/08 00:31:57;;;;;;;9.48;6.07;;;;;;;2.26;74.98;94856.56;5121009;27;20036;-69
2022/01/08 00:34:23;;;;;;;8.48;5.55;;;;;;;2.10;75.21;94851.38;5128361;27;20031;-69
2022/01/08 00:36:48;;;;;;;8.68;5.88;;;;;;;2.09;75.87;94840.31;5129666;27;20024;-69
2022/01/08 00:39:13;;;;;;;9.27;5.45;;;;;;;2.11;75.03;94833.34;5126235;27;20031;-69
2022/01/08 00:41:39;;;;;;;9.80;6.05;;;;;;;2.05;75.88;94848.22;5111641;28;20450;-69
2022/01/08 00:44:04;;;;;;;9.68;6.03;;;;;;;2.02;76.17;94841.50;5109293;28;20097;-69
2022/01/08 00:46:30;;;;;;;8.95;5.88;;;;;;;2.10;75.33;94826.59;5116466;28;20665;-69
2022/01/08 00:48:55;;;;;;;9.13;5.72;;;;;;;1.97;75.52;94836.59;5110883;28;20027;-69
2022/01/08 00:51:20;;;;;;;10.30;5.32;;;;;;;1.93;75.96;94840.22;5109355;28;20085;-68
2022/01/08 00:53:46;;;;;;;8.80;5.10;;;;;;;2.03;76.04;94835.47;5110796;28;20019;-69
2022/01/08 00:56:14;;;;;;;8.50;5.10;;;;;;;2.13;75.64;94831.56;5110938;28;20044;-69
2022/01/08 00:58:41;;;;;;;7.20;4.82;;;;;;;2.19;74.95;94838.94;5100303;28;20027;-69
2022/01/08 01:01:06;;;;;;;8.90;5.07;;;;;;;2.03;75.58;94834.66;5107750;28;20516;-69
2022/01/08 01:03:31;;;;;;;7.15;4.70;;;;;;;2.10;75.32;94839.41;5105126;28;20032;-69
2022/01/08 01:05:57;;;;;;;6.72;4.35;;;;;;;1.95;75.77;94819.63;5108829;28;20035;-69
2022/01/08 01:08:22;;;;;;;7.07;4.70;;;;;;;1.99;75.83;94816.84;5126145;28;20528;-69
2022/01/08 01:10:48;;;;;;;8.05;4.82;;;;;;;1.74;76.05;94793.34;5122077;28;20059;-69
2022/01/08 01:13:13;;;;;;;7.50;4.88;;;;;;;1.93;76.26;94831.72;5111978;28;20027;-69
2022/01/08 01:15:39;;;;;;;8.10;4.70;;;;;;;1.92;76.14;94812.97;5093614;28;20027;-69
2022/01/08 01:18:05;;;;;;;7.95;4.80;;;;;;;1.95;75.77;94819.63;5128233;28;20043;-69
2022/01/08 01:20:30;;;;;;;6.88;4.05;;;;;;;2.00;75.82;94813.38;5125201;28;20497;-69
2022/01/08 01:23:06;;;;;;;7.03;4.20;;;;;;;2.00;76.12;94820.25;5093208;28;20034;-69
2022/01/08 01:25:37;;;;;;;8.13;5.20;;;;;;;2.03;76.22;94820.09;5100874;28;20031;-69
2022/01/08 01:42:13;;;;;;;6.35;4.32;;;;;;;1.96;75.99;94791.38;5121322;27;20087;-69
2022/01/08 01:47:19;;;;;;;6.80;4.35;;;;;;;1.85;76.34;94788.53;5101361;27;20665;-69
2022/01/08 01:49:46;;;;;;;7.13;4.00;;;;;;;1.89;76.63;94797.72;5126304;27;20023;-69
2022/01/08 01:52:14;;;;;;;7.53;4.53;;;;;;;1.85;76.46;94798.78;5124265;27;20420;-69
2022/01/08 01:54:39;;;;;;;6.95;4.28;;;;;;;1.85;76.76;94787.72;5114563;27;20030;-69
2022/01/08 01:57:06;;;;;;;5.78;3.80;;;;;;;1.74;76.86;94771.13;5112244;27;20035;-69
2022/01/08 01:59:32;;;;;;;6.07;3.80;;;;;;;1.85;76.34;94785.16;5113851;27;20106;-69
2022/01/08 02:01:58;;;;;;;8.48;4.25;;;;;;;1.89;76.97;94786.63;5097903;28;20032;-69
2022/01/08 02:04:24;;;;;;;9.38;4.78;;;;;;;1.85;76.89;94782.59;5103926;28;20063;-69
2022/01/08 02:06:49;;;;;;;7.40;4.65;;;;;;;1.77;76.86;94793.19;5115934;27;20035;-69
2022/01/08 02:09:14;;;;;;;6.88;4.18;;;;;;;1.81;77.02;94774.19;5094925;28;20050;-69
2022/01/08 02:12:06;;;;;;;6.50;4.28;;;;;;;1.85;76.41;94777.47;5095859;28;20115;-69
2022/01/08 02:14:33;;;;;;;7.38;4.60;;;;;;;1.85;76.76;94785.16;5127805;27;20412;-69
2022/01/08 02:16:59;;;;;;;6.28;4.43;;;;;;;1.59;76.82;94750.53;5133118;27;20039;-69
2022/01/08 02:19:24;;;;;;;8.90;4.88;;;;;;;1.65;77.32;94753.66;5107591;28;20450;-69
2022/01/08 02:21:54;;;;;;;7.20;3.92;;;;;;;1.87;76.52;94771.34;5095806;28;20030;-69
2022/01/08 02:24:20;;;;;;;7.43;3.83;;;;;;;1.72;76.86;94749.88;5109161;27;20473;-69
2022/01/08 02:26:45;;;;;;;6.43;3.80;;;;;;;1.83;76.77;94754.47;5116169;27;20042;-69
2022/01/08 02:29:20;;;;;;;5.53;3.90;;;;;;;1.75;76.81;94748.88;5131307;27;20031;-69
2022/01/08 02:32:14;;;;;;;8.05;4.18;;;;;;;1.85;76.60;94749.28;5117028;27;20039;-69
2022/01/08 02:34:40;;;;;;;7.07;4.28;;;;;;;1.84;76.43;94747.59;5127694;27;20489;-69
2022/01/08 02:37:06;;;;;;;5.90;3.38;;;;;;;1.84;75.50;94734.78;5115676;27;20462;-69
2022/01/08 02:39:38;;;;;;;7.18;4.35;;;;;;;1.91;76.64;94743.84;5097383;28;20024;-69
2022/01/08 02:42:04;;;;;;;7.50;4.55;;;;;;;1.95;76.48;94733.38;5132810;27;20031;-69
2022/01/08 02:44:29;;;;;;;7.70;4.32;;;;;;;1.98;76.30;94722.16;5115980;27;20047;-69
2022/01/08 02:46:55;;;;;;;8.48;4.47;;;;;;;2.13;75.99;94723.91;5131528;27;20028;-69
2022/01/08 02:49:21;;;;;;;7.60;4.97;;;;;;;2.22;75.24;94713.19;5118700;27;20027;-68
2022/01/08 02:51:47;;;;;;;8.02;4.88;;;;;;;2.13;75.28;94712.84;5114656;27;20076;-70
2022/01/08 02:54:13;;;;;;;7.05;4.45;;;;;;;2.01;75.80;94688.69;5113240;27;20031;-69
2022/01/08 02:56:42;;;;;;;7.70;4.65;;;;;;;2.08;76.00;94691.75;5122321;27;20043;-69
2022/01/08 02:59:08;;;;;;;7.85;4.60;;;;;;;2.20;75.24;94686.81;5095249;28;20478;-69
2022/01/08 03:01:34;;;;;;;7.05;4.00;;;;;;;2.16;75.59;94705.81;5120426;27;20031;-70
2022/01/08 03:03:59;;;;;;;8.73;5.00;;;;;;;2.14;75.68;94702.50;5130513;27;20439;-69
2022/01/08 03:06:25;;;;;;;8.10;4.85;;;;;;;2.14;75.50;94699.94;5131554;27;20519;-69
2022/01/08 03:08:50;;;;;;;7.25;4.55;;;;;;;1.91;75.43;94680.63;5110524;28;20152;-69
2022/01/08 03:11:15;;;;;;;8.57;4.85;;;;;;;2.09;75.02;94693.38;5124890;27;20039;-69
2022/01/08 03:13:41;;;;;;;7.78;4.75;;;;;;;2.10;75.89;94702.75;5105194;27;20058;-69
2022/01/08 03:16:06;;;;;;;7.15;4.25;;;;;;;2.09;75.64;94708.75;5129000;27;20031;-69
2022/01/08 03:18:34;;;;;;;5.72;3.60;;;;;;;1.99;75.29;94691.31;5100121;28;20040;-69
2022/01/08 03:21:12;;;;;;;6.00;3.63;;;;;;;1.89;76.11;94697.78;5113170;27;20061;-69
2022/01/08 03:23:44;;;;;;;6.22;3.90;;;;;;;1.96;76.44;94711.97;5114659;27;20418;-69
2022/01/08 03:26:09;;;;;;;7.18;4.22;;;;;;;1.94;76.51;94713.75;5116411;27;20043;-69
2022/01/08 03:28:35;;;;;;;5.70;3.95;;;;;;;1.93;76.59;94713.84;5127655;27;20030;-69
2022/01/08 03:31:00;;;;;;;6.35;3.92;;;;;;;1.97;75.86;94693.09;5089526;28;20059;-68
2022/01/08 03:33:26;;;;;;;5.78;3.88;;;;;;;1.93;75.64;94670.31;5114870;27;20495;-69
2022/01/08 03:35:51;;;;;;;6.45;3.92;;;;;;;2.18;75.53;94711.69;5113684;27;20043;-68
2022/01/08 03:38:17;;;;;;;6.90;3.60;;;;;;;2.16;75.75;94707.56;5125550;27;20026;-69
2022/01/08 03:40:42;;;;;;;5.38;3.45;;;;;;;2.22;75.68;94710.63;5130361;27;20468;-69
2022/01/08 03:43:07;;;;;;;4.30;3.03;;;;;;;1.98;76.53;94694.78;5108806;27;20039;-69
2022/01/08 03:45:33;;;;;;;5.75;3.65;;;;;;;1.99;76.77;94710.97;5123588;27;20027;-69
2022/01/08 03:50:30;;;;;;;6.30;3.50;;;;;;;2.03;76.65;94697.09;5124331;27;20050;-68
2022/01/08 03:52:55;;;;;;;7.10;4.30;;;;;;;1.71;76.98;94666.25;5108383;27;20027;-69
2022/01/08 03:55:22;;;;;;;6.00;3.72;;;;;;;1.77;77.25;94696.69;5091050;28;20038;-68
2022/01/08 03:57:47;;;;;;;6.10;3.72;;;;;;;1.87;77.79;94691.13;5093205;28;20420;-69
2022/01/08 04:00:13;;;;;;;8.57;4.82;;;;;;;1.92;77.31;94678.88;5091897;28;20039;-69
2022/01/08 04:02:39;;;;;;;9.02;5.00;;;;;;;1.97;77.35;94687.16;5110858;27;20035;-70
2022/01/08 04:05:04;;;;;;;36.78;22.83;;;;;;;1.83;77.50;94679.34;5090450;28;20035;-69
2022/01/08 04:07:30;;;;;;;11.07;7.10;;;;;;;1.91;77.51;94683.19;5109040;28;20032;-69
2022/01/08 04:09:55;;;;;;;9.38;6.13;;;;;;;1.97;77.21;94675.16;5109807;28;20489;-69
2022/01/08 04:12:35;;;;;;;8.07;5.65;;;;;;;2.06;76.62;94673.03;5105156;27;20023;-69
2022/01/08 04:15:07;;;;;;;10.68;8.27;;;;;;;2.14;76.60;94674.28;5129273;27;20122;-69
2022/01/08 04:17:32;;;;;;;8.35;6.18;;;;;;;1.80;77.40;94662.41;5111843;27;20084;-69
2022/01/08 04:19:57;;;;;;;7.35;4.13;;;;;;;1.82;77.58;94663.16;5108713;27;20031;-69
2022/01/08 04:22:24;;;;;;;8.20;6.20;;;;;;;1.83;77.68;94659.69;5119697;27;20066;-69
2022/01/08 04:24:50;;;;;;;6.78;4.93;;;;;;;1.83;77.57;94663.97;5094572;28;20043;-69
2022/01/08 04:27:15;;;;;;;5.63;3.60;;;;;;;1.92;77.36;94674.59;5110405;28;20031;-69
2022/01/08 04:29:41;;;;;;;8.35;5.10;;;;;;;2.14;76.50;94664.03;5127668;27;20031;-69
2022/01/08 04:32:06;;;;;;;5.72;4.13;;;;;;;2.33;75.72;94671.59;5129917;27;20032;-69
2022/01/08 04:34:32;;;;;;;6.07;3.50;;;;;;;2.22;75.87;94676.47;5129918;27;20027;-69
2022/01/08 04:36:57;;;;;;;6.25;3.88;;;;;;;2.26;76.05;94672.84;5107947;27;20420;-69
2022/01/08 04:39:23;;;;;;;9.77;4.90;;;;;;;2.32;76.07;94667.41;5130197;27;20023;-69
2022/01/08 04:41:48;;;;;;;8.35;5.07;;;;;;;2.16;76.11;94677.63;5128958;27;20036;-69
2022/01/08 04:44:14;;;;;;;4.82;3.00;;;;;;;2.05;76.33;94673.97;5112482;28;20023;-69
2022/01/08 04:46:41;;;;;;;9.80;6.78;;;;;;;2.00;76.99;94681.88;5095653;28;20031;-69
2022/01/08 04:49:06;;;;;;;4.43;2.72;;;;;;;2.16;76.48;94671.66;5112790;28;20034;-68
2022/01/08 04:51:32;;;;;;;5.20;3.00;;;;;;;2.27;75.82;94673.69;5128813;28;20059;-69
2022/01/08 04:53:57;;;;;;;3.53;2.30;;;;;;;2.41;75.49;94666.91;5110681;28;20058;-68
2022/01/08 04:56:23;;;;;;;6.80;5.13;;;;;;;2.31;75.36;94667.47;5081274;28;20043;-69
2022/01/08 04:58:48;;;;;;;7.25;4.75;;;;;;;2.32;76.02;94672.53;5092042;28;20092;-69
2022/01/08 05:01:14;;;;;;;6.22;4.47;;;;;;;2.52;74.70;94657.81;5092527;28;20043;-68
2022/01/08 05:03:40;;;;;;;6.40;3.97;;;;;;;2.43;75.37;94666.84;5110971;28;20028;-69
2022/01/08 05:06:05;;;;;;;5.32;3.72;;;;;;;2.34;75.55;94660.47;5102373;28;20041;-69
2022/01/08 05:08:31;;;;;;;6.03;3.33;;;;;;;2.37;75.65;94662.84;5119486;27;20546;-69
2022/01/08 05:10:56;;;;;;;4.07;2.40;;;;;;;2.44;75.33;94663.34;5094413;28;20035;-69
2022/01/08 05:13:22;;;;;;;4.47;2.97;;;;;;;2.43;75.14;94665.09;5079428;27;20482;-69
2022/01/08 05:15:47;;;;;;;5.55;3.00;;;;;;;2.29;76.10;94667.56;5102806;27;20024;-69
2022/01/08 05:18:13;;;;;;;4.93;3.22;;;;;;;2.54;75.58;94672.22;5134713;27;20050;-69
2022/01/08 05:20:41;;;;;;;4.72;3.10;;;;;;;2.40;75.86;94674.69;5108617;28;20433;-69
2022/01/08 05:23:06;;;;;;;4.05;2.58;;;;;;;2.45;75.38;94663.28;5112358;28;20027;-69
2022/01/08 05:25:32;;;;;;;4.93;2.63;;;;;;;2.40;75.64;94652.44;5110425;27;20028;-69
2022/01/08 05:27:57;;;;;;;4.57;2.60;;;;;;;2.23;76.42;94657.63;5113091;28;20023;-69
2022/01/08 05:30:23;;;;;;;3.65;2.25;;;;;;;2.28;75.92;94650.50;5094518;28;20406;-69
2022/01/08 05:32:48;;;;;;;3.85;2.42;;;;;;;2.34;75.66;94654.47;5113657;27;20020;-69
2022/01/08 05:35:14;;;;;;;4.22;2.65;;;;;;;2.28;76.24;94642.00;5095971;28;20042;-69
2022/01/08 05:37:40;;;;;;;3.90;2.58;;;;;;;2.35;76.42;94661.28;5112269;28;20030;-69
2022/01/08 05:40:06;;;;;;;4.45;2.60;;;;;;;2.23;77.03;94657.63;5112727;28;20405;-70
2022/01/08 05:42:31;;;;;;;4.15;2.70;;;;;;;2.22;77.02;94651.66;5094354;28;20036;-69
2022/01/08 05:44:56;;;;;;;5.15;2.78;;;;;;;2.20;77.01;94656.06;5101023;28;20034;-68
2022/01/08 05:47:22;;;;;;;4.85;3.53;;;;;;;2.22;76.99;94654.22;5095520;28;20069;-69
2022/01/08 05:49:48;;;;;;;4.20;2.83;;;;;;;2.07;76.93;94629.41;5124526;27;20024;-69
2022/01/08 05:52:13;;;;;;;4.30;2.40;;;;;;;2.25;76.50;94648.09;5101961;28;20066;-69
2022/01/08 05:54:39;;;;;;;4.07;2.60;;;;;;;2.21;76.90;94649.19;5129538;27;20043;-69
2022/01/08 05:57:04;;;;;;;5.15;3.10;;;;;;;2.13;76.92;94639.34;5111920;28;20509;-68
2022/01/08 05:59:30;;;;;;;5.15;3.15;;;;;;;2.33;76.48;94651.09;5109340;28;20524;-69
2022/01/08 06:01:56;;;;;;;5.53;2.85;;;;;;;2.27;77.32;94650.59;5097619;28;20566;-69
2022/01/08 06:04:21;;;;;;;5.05;2.92;;;;;;;1.96;77.41;94606.09;5095141;28;20028;-69
2022/01/08 06:06:46;;;;;;;4.85;2.78;;;;;;;2.22;77.71;94651.66;5094541;28;20417;-69
2022/01/08 06:09:12;;;;;;;6.28;3.55;;;;;;;2.08;77.32;94638.75;5096293;27;20020;-69
2022/01/08 06:11:37;;;;;;;4.07;2.40;;;;;;;2.12;76.79;94608.69;5127520;27;20057;-69
2022/01/08 06:14:03;;;;;;;3.30;2.20;;;;;;;2.34;76.37;94646.78;5124846;27;20505;-69
2022/01/08 06:16:33;;;;;;;5.88;3.97;;;;;;;2.30;77.11;94656.38;5111771;27;20122;-70
2022/01/08 06:19:00;;;;;;;4.45;2.53;;;;;;;2.45;76.50;94641.91;5132503;27;20034;-69
2022/01/08 06:21:25;;;;;;;6.03;3.42;;;;;;;2.29;76.57;94643.66;5133110;27;20620;-70
2022/01/08 06:23:51;;;;;;;8.55;5.43;;;;;;;2.25;76.93;94625.03;5132454;27;20039;-69
2022/01/08 06:26:16;;;;;;;8.20;5.03;;;;;;;2.20;77.42;94650.94;5132428;27;20023;-69
2022/01/08 06:28:41;;;;;;;6.25;3.75;;;;;;;2.41;76.66;94640.44;5131251;27;20090;-68
2022/01/08 06:31:07;;;;;;;7.43;4.22;;;;;;;2.33;76.76;94634.88;5122116;27;20138;-69
2022/01/08 06:33:32;;;;;;;8.63;4.88;;;;;;;2.22;77.47;94651.66;5111516;28;20492;-69
2022/01/08 06:35:58;;;;;;;7.03;4.15;;;;;;;2.27;77.01;94648.03;5113051;27;20035;-69
2022/01/08 06:38:23;;;;;;;7.22;4.20;;;;;;;2.44;76.45;94650.53;5132151;27;20416;-69
2022/01/08 06:40:49;;;;;;;7.68;4.05;;;;;;;2.50;76.47;94650.19;5131642;27;20039;-69
2022/01/08 06:43:14;;;;;;;4.88;2.85;;;;;;;2.30;77.30;94637.63;5133577;27;20024;-69
2022/01/08 06:45:39;;;;;;;6.03;3.90;;;;;;;2.49;77.05;94648.53;5105659;28;20038;-69
2022/01/08 06:48:05;;;;;;;4.47;2.40;;;;;;;2.46;76.87;94648.72;5114923;27;20066;-69
2022/01/08 06:50:30;;;;;;;4.32;2.60;;;;;;;2.35;77.23;94645.91;5093005;28;20043;-69
2022/01/08 06:52:56;;;;;;;6.75;3.78;;;;;;;2.46;77.08;94643.59;5113003;27;20023;-69
2022/01/08 06:55:21;;;;;;;7.07;3.17;;;;;;;2.54;76.53;94641.44;5110758;28;20081;-69
2022/01/08 06:57:47;;;;;;;16.85;8.48;;;;;;;2.55;77.01;94643.09;5094940;28;20028;-69
2022/01/08 07:00:13;;;;;;;23.25;12.93;;;;;;;2.62;76.39;94648.72;5111302;28;20413;-69
2022/01/08 07:02:38;;;;;;;35.70;16.20;;;;;;;2.56;76.79;94649.03;5110322;28;20020;-70
2022/01/08 07:05:04;;;;;;;23.00;12.40;;;;;;;2.58;76.45;94639.53;5110292;28;20394;-69
2022/01/08 07:07:29;;;;;;;18.75;9.45;;;;;;;2.67;76.10;94651.84;5076892;28;20046;-69
2022/01/08 07:09:55;;;;;;;16.30;8.73;;;;;;;2.63;76.71;94653.75;5111293;27;20031;-69
2022/01/08 07:12:20;;;;;;;7.57;3.63;;;;;;;2.56;76.87;94643.91;5124818;27;20027;-69
2022/01/08 07:14:45;;;;;;;5.18;2.72;;;;;;;2.53;76.44;94618.44;5112134;27;20050;-70
2022/01/08 07:17:11;;;;;;;9.43;5.07;;;;;;;2.71;76.67;94637.13;5095664;27;20035;-69
2022/01/08 07:19:36;;;;;;;8.52;4.50;;;;;;;2.73;76.40;94641.28;5112097;27;20497;-69
2022/01/08 07:22:02;;;;;;;10.30;6.15;;;;;;;2.77;75.81;94624.78;5090943;28;20494;-69
2022/01/08 07:24:27;;;;;;;9.05;5.53;;;;;;;2.75;76.08;94634.28;5110424;27;20034;-69
2022/01/08 07:26:53;;;;;;;5.93;3.30;;;;;;;2.65;76.45;94616.03;5112515;27;20069;-69
2022/01/08 07:29:18;;;;;;;11.25;4.70;;;;;;;2.85;76.05;94634.63;5110507;28;20089;-69
2022/01/08 07:31:43;;;;;;;11.80;5.32;;;;;;;2.64;76.79;94632.31;5110130;28;20078;-69
2022/01/08 07:34:09;;;;;;;8.88;4.82;;;;;;;2.73;77.28;94636.13;5126657;27;20393;-69
2022/01/08 07:36:34;;;;;;;6.82;3.40;;;;;;;2.73;76.70;94635.28;5108194;28;20027;-69
2022/01/08 07:39:00;;;;;;;7.93;4.60;;;;;;;2.72;76.34;94642.16;5107752;28;20413;-69
2022/01/08 07:41:25;;;;;;;4.20;2.30;;;;;;;2.76;75.96;94630.84;5123443;27;20386;-69
2022/01/08 07:43:51;;;;;;;5.32;3.05;;;;;;;2.70;76.38;94636.28;5119188;27;20035;-69
2022/01/08 07:46:16;;;;;;;6.38;3.80;;;;;;;2.81;75.63;94628.00;5111144;28;20023;-69
2022/01/08 07:48:43;;;;;;;12.27;5.40;;;;;;;2.96;75.70;94632.28;5109894;28;20046;-69
2022/01/08 07:51:09;;;;;;;7.53;4.25;;;;;;;3.08;75.18;94635.91;5110208;28;20061;-69
2022/01/08 07:53:34;;;;;;;11.45;4.78;;;;;;;3.03;74.79;94628.44;5108363;27;20424;-69
2022/01/08 07:56:00;;;;;;;12.07;6.68;;;;;;;2.89;75.16;94620.69;5094219;27;20425;-69
2022/01/08 07:58:25;;;;;;;9.55;6.18;;;;;;;3.03;75.24;94633.59;5123855;27;20037;-69
2022/01/08 08:00:51;;;;;;;4.13;2.40;;;;;;;3.13;74.93;94629.59;5083276;27;20035;-69
2022/01/08 08:03:17;;;;;;;4.20;2.70;;;;;;;3.07;74.32;94635.09;5129089;27;20034;-69
2022/01/08 08:05:43;;;;;;;5.25;2.85;;;;;;;3.07;74.70;94629.94;5096488;27;20419;-69
2022/01/08 08:08:08;;;;;;;3.50;1.98;;;;;;;3.20;73.99;94632.63;5116227;27;20038;-69
2022/01/08 08:10:33;;;;;;;4.10;2.22;;;;;;;3.12;73.98;94633.09;5090080;28;20204;-69
2022/01/08 08:13:00;;;;;;;4.65;2.60;;;;;;;3.13;74.02;94629.59;5109976;28;20505;-70
2022/01/08 08:15:25;;;;;;;6.65;4.13;;;;;;;3.07;74.68;94624.81;5108716;28;20054;-69
2022/01/08 08:17:52;;;;;;;10.13;4.97;;;;;;;3.21;74.28;94625.78;5109828;28;20035;-70
2022/01/08 08:20:18;;;;;;;4.53;3.10;;;;;;;3.18;74.42;94625.97;5109545;28;20555;-69
2022/01/08 08:22:44;;;;;;;5.53;3.92;;;;;;;3.35;73.71;94628.38;5092188;28;20030;-70
2022/01/08 08:25:10;;;;;;;6.57;3.30;;;;;;;3.35;73.87;94623.25;5110512;28;20035;-70
2022/01/08 08:27:37;;;;;;;9.43;6.47;;;;;;;3.47;73.44;94622.53;5101240;28;20077;-70
2022/01/08 08:30:03;;;;;;;10.85;5.88;;;;;;;3.37;73.28;94608.56;5120179;27;20058;-69
2022/01/08 08:32:29;;;;;;;4.97;3.20;;;;;;;3.24;73.23;94610.19;5113017;27;20448;-70
2022/01/08 08:34:54;;;;;;;5.88;3.67;;;;;;;3.38;73.23;94610.22;5131244;27;20028;-70
2022/01/08 08:37:19;;;;;;;5.38;3.30;;;;;;;3.37;73.12;94611.13;5129225;27;20038;-70
2022/01/08 08:39:45;;;;;;;5.53;3.08;;;;;;;3.20;73.58;94613.84;5129486;27;20072;-70
2022/01/08 08:42:10;;;;;;;6.97;4.38;;;;;;;3.39;73.90;94609.31;5129648;27;20036;-69
2022/01/08 08:44:36;;;;;;;7.97;3.95;;;;;;;3.45;73.21;94613.25;5092585;28;20441;-70
2022/01/08 08:47:03;;;;;;;7.85;4.15;;;;;;;3.46;73.34;94602.91;5110104;28;20039;-70
2022/01/08 08:49:29;;;;;;;5.32;3.00;;;;;;;3.46;73.13;94595.19;5124754;28;20375;-70
2022/01/08 08:51:54;;;;;;;7.15;3.53;;;;;;;3.34;73.60;94606.16;5113358;28;20473;-70
2022/01/08 08:54:20;;;;;;;6.63;3.30;;;;;;;3.53;73.17;94600.78;5132013;27;20027;-70
2022/01/08 08:56:45;;;;;;;6.93;4.70;;;;;;;3.41;73.25;94596.38;5113326;28;20446;-70
2022/01/08 08:59:10;;;;;;;4.13;2.42;;;;;;;3.38;73.10;94596.56;5113118;28;20408;-70
2022/01/08 09:01:36;;;;;;;5.45;2.97;;;;;;;3.24;73.93;94579.38;5113538;28;20028;-69
2022/01/08 09:04:02;;;;;;;4.40;2.25;;;;;;;3.47;73.00;94596.84;5131844;27;20107;-70
2022/01/08 09:06:27;;;;;;;9.75;5.10;;;;;;;3.18;74.12;94598.53;5113150;28;20031;-70
2022/01/08 09:08:53;;;;;;;4.60;2.38;;;;;;;3.25;73.56;94583.59;5131674;27;20023;-69
2022/01/08 09:11:19;;;;;;;4.25;2.35;;;;;;;3.25;73.63;94579.28;5113176;28;20038;-70
2022/01/08 09:13:44;;;;;;;4.65;2.63;;;;;;;3.22;73.46;94571.75;5113177;28;20046;-69
2022/01/08 09:16:10;;;;;;;10.15;5.80;;;;;;;3.39;73.33;94563.06;5113215;28;20028;-70
2022/01/08 09:18:36;;;;;;;6.90;4.47;;;;;;;3.43;73.05;94572.28;5096105;28;20118;-69
2022/01/08 09:21:02;;;;;;;4.32;2.45;;;;;;;3.34;73.19;94563.38;5131393;27;20031;-70
2022/01/08 09:23:27;;;;;;;5.57;3.42;;;;;;;3.55;72.80;94568.16;5112956;28;20058;-70
2022/01/08 09:25:53;;;;;;;4.47;2.70;;;;;;;3.63;72.41;94565.94;5130277;28;20039;-70
2022/01/08 09:28:18;;;;;;;3.22;2.22;;;;;;;3.70;71.74;94561.25;5112990;28;20443;-69
2022/01/08 09:30:43;;;;;;;4.05;2.65;;;;;;;3.71;71.78;94563.75;5112693;28;20043;-70
2022/01/08 09:33:09;;;;;;;4.10;2.67;;;;;;;3.72;71.26;94562.00;5131398;27;20443;-70
2022/01/08 09:35:34;;;;;;;4.75;3.13;;;;;;;3.71;72.39;94547.50;5112893;28;20039;-70
2022/01/08 09:38:00;;;;;;;8.25;4.03;;;;;;;3.62;72.07;94542.91;5130070;28;20084;-70
2022/01/08 09:40:25;;;;;;;5.03;2.72;;;;;;;3.78;71.92;94543.63;5112818;28;20458;-70
2022/01/08 09:42:51;;;;;;;5.00;2.60;;;;;;;3.60;71.95;94531.91;5130062;28;20027;-70
2022/01/08 09:45:17;;;;;;;7.53;3.55;;;;;;;3.75;72.21;94534.38;5130010;28;20031;-70
2022/01/08 09:47:42;;;;;;;6.25;4.43;;;;;;;3.61;72.55;94546.41;5129998;28;20504;-70
2022/01/08 09:50:08;;;;;;;4.80;3.53;;;;;;;3.62;72.69;94535.19;5132211;27;20031;-70
2022/01/08 09:52:33;;;;;;;6.57;3.83;;;;;;;3.58;73.03;94532.81;5116622;27;20491;-69
2022/01/08 09:54:59;;;;;;;4.68;3.30;;;;;;;3.46;72.46;94533.56;5133827;27;20417;-70
2022/01/08 09:57:24;;;;;;;4.82;3.10;;;;;;;3.49;71.96;94517.97;5133623;27;20035;-69
2022/01/08 09:59:50;;;;;;;4.82;3.17;;;;;;;3.70;71.98;94527.88;5133644;27;20513;-70
2022/01/08 10:02:19;;;;;;;7.38;4.03;;;;;;;3.88;72.01;94534.47;5128837;27;20603;-69
2022/01/08 10:04:45;;;;;;;13.02;7.25;;;;;;;4.03;71.31;94530.13;5123619;27;20445;-70
2022/01/08 10:07:24;;;;;;;10.27;5.15;;;;;;;3.99;71.68;94521.78;5102760;28;20045;-70
2022/01/08 10:10:12;;;;;;;12.20;5.82;;;;;;;4.08;71.37;94517.00;5079461;28;20023;-70
2022/01/08 10:12:43;;;;;;;7.38;4.13;;;;;;;4.08;71.69;94517.00;5117399;27;20046;-70
2022/01/08 10:17:52;;;;;;;6.85;4.60;;;;;;;4.02;71.39;94506.16;5098458;28;20043;-70
2022/01/08 10:20:28;;;;;;;8.80;5.30;;;;;;;3.81;72.15;94497.19;5095575;28;20031;-70
2022/01/08 10:22:59;;;;;;;5.28;3.08;;;;;;;4.13;70.46;94502.94;5112434;28;20464;-70
2022/01/08 10:25:24;;;;;;;5.70;3.30;;;;;;;4.15;70.00;94495.09;5096020;28;20096;-70
2022/01/08 10:27:50;;;;;;;5.13;3.55;;;;;;;3.98;71.32;94509.84;5095426;28;20032;-70
2022/01/08 10:30:25;;;;;;;5.15;2.92;;;;;;;3.92;71.35;94504.25;5118293;27;20043;-70
2022/01/08 10:33:00;;;;;;;5.97;3.80;;;;;;;4.17;70.71;94498.41;5115874;27;20019;-71
2022/01/08 10:35:54;;;;;;;4.90;2.90;;;;;;;3.94;70.98;94498.09;5112733;27;20038;-70
2022/01/08 10:38:19;;;;;;;4.30;2.55;;;;;;;4.08;70.62;94488.72;5115519;27;20031;-70
2022/01/08 10:40:44;;;;;;;5.22;3.45;;;;;;;4.15;70.61;94497.69;5096742;27;20031;-70
2022/01/08 10:43:25;;;;;;;4.63;2.53;;;;;;;4.19;70.00;94481.97;5110244;28;20039;-70
2022/01/08 10:45:51;;;;;;;5.25;3.00;;;;;;;4.24;70.08;94473.97;5095270;28;20027;-70
2022/01/08 10:48:27;;;;;;;4.47;3.13;;;;;;;4.00;70.35;94478.91;5095260;28;20467;-70
2022/01/08 10:50:52;;;;;;;4.00;2.90;;;;;;;4.25;69.63;94470.47;5095152;28;20028;-71
2022/01/08 10:53:18;;;;;;;4.13;3.03;;;;;;;4.15;70.06;94465.09;5111944;28;20404;-72
2022/01/08 10:55:46;;;;;;;7.57;5.32;;;;;;;4.11;70.78;94471.34;5094881;28;20490;-72
2022/01/08 10:58:12;;;;;;;5.90;3.90;;;;;;;3.91;70.65;94444.31;5085997;28;20505;-72
2022/01/08 11:00:40;;;;;;;5.07;3.78;;;;;;;4.13;70.71;94454.09;5111165;28;20035;-72
2022/01/08 11:03:05;;;;;;;5.32;3.60;;;;;;;4.00;70.87;94463.47;5115396;27;20363;-72
2022/01/08 11:05:32;;;;;;;5.07;3.08;;;;;;;4.27;70.75;94452.38;5119329;27;20036;-71
2022/01/08 11:08:13;;;;;;;5.35;3.33;;;;;;;4.36;70.06;94452.63;5112904;28;20026;-71
2022/01/08 11:10:39;;;;;;;5.35;3.65;;;;;;;4.38;69.49;94445.63;5111690;28;20497;-71
2022/01/08 11:13:05;;;;;;;5.40;3.65;;;;;;;4.57;68.91;94455.56;5112386;27;20118;-72
2022/01/08 11:15:52;;;;;;;4.63;3.33;;;;;;;4.52;69.23;94451.63;5098305;28;20036;-72
2022/01/08 11:18:20;;;;;;;5.50;3.35;;;;;;;4.35;69.36;94445.84;5111478;28;20553;-72
2022/01/08 11:20:45;;;;;;;5.65;3.63;;;;;;;4.29;69.18;94446.22;5117284;27;20084;-71
2022/01/08 11:23:11;;;;;;;6.75;4.20;;;;;;;3.80;70.85;94444.16;5131909;27;20030;-71
2022/01/08 11:25:38;;;;;;;6.68;3.17;;;;;;;3.98;70.69;94440.47;5106537;28;20382;-71
2022/01/08 11:28:10;;;;;;;5.35;3.42;;;;;;;4.21;70.02;94443.31;5111271;28;20036;-72
2022/01/08 11:30:40;;;;;;;6.75;3.85;;;;;;;4.30;69.64;94427.28;5077117;28;20047;-71
2022/01/08 11:33:12;;;;;;;6.00;3.70;;;;;;;4.30;69.81;94435.00;5111104;27;20395;-71
2022/01/08 11:35:38;;;;;;;5.20;3.80;;;;;;;4.20;69.73;94436.50;5111060;28;20484;-72
2022/01/08 11:38:06;;;;;;;5.22;3.55;;;;;;;3.87;71.20;94424.88;5124329;27;20030;-71
2022/01/08 11:40:32;;;;;;;5.72;3.67;;;;;;;3.71;71.84;94425.00;5079515;28;20046;-71
2022/01/08 11:43:02;;;;;;;5.78;3.78;;;;;;;3.87;71.72;94421.47;5093976;28;20019;-71
2022/01/08 11:45:58;;;;;;;6.28;3.92;;;;;;;3.79;72.00;94430.50;5095065;27;20070;-72
2022/01/08 11:48:42;;;;;;;5.68;4.00;;;;;;;3.86;72.05;94419.84;5131483;27;20365;-71
2022/01/08 11:51:07;;;;;;;6.10;3.90;;;;;;;3.87;71.68;94413.75;5099231;27;20523;-71
2022/01/08 11:53:34;;;;;;;8.85;6.47;;;;;;;3.98;71.56;94413.91;5097005;27;20070;-71
2022/01/08 11:56:04;;;;;;;5.70;3.60;;;;;;;3.97;71.44;94402.00;5114237;27;20039;-72
2022/01/08 11:58:31;;;;;;;5.88;3.88;;;;;;;4.15;71.11;94403.41;5109260;27;20027;-71
2022/01/08 12:00:56;;;;;;;6.13;4.03;;;;;;;4.01;71.12;94408.56;5117645;27;20035;-72